Time;durP1;ratioP1;P1;durP2;ratioP2;P2;SDS_P1;SDS_P2;PMS_P1;PMS_P2;Temp;Humidity;BMP_temperature;BMP_pressure;BME280_temperature;BME280_humidity;BME280_pressure;Samples;Min_cycle;Max_cycle;Signal;HPM_P1;HPM_P2
2022/04/15 00:02:09;;;;;;;5.03;1.58;;;;;;;11.72;92.89;99291.91;5018321;28;20030;-67
2022/04/15 00:04:35;;;;;;;4.82;1.58;;;;;;;11.59;93.67;99295.38;5022071;28;20021;-67
2022/04/15 00:07:01;;;;;;;4.28;1.52;;;;;;;11.59;94.41;99295.38;5021452;28;20042;-66
2022/04/15 00:09:27;;;;;;;5.63;1.58;;;;;;;11.45;95.09;99299.00;5020235;28;20033;-66
2022/04/15 00:11:53;;;;;;;4.72;1.73;;;;;;;11.35;95.17;99297.47;4994967;28;20627;-67
2022/04/15 00:14:19;;;;;;;4.60;1.45;;;;;;;11.25;96.37;99306.97;5020288;28;20380;-66
2022/04/15 00:16:44;;;;;;;3.65;1.65;;;;;;;11.14;97.00;99302.94;5019501;28;20037;-67
2022/04/15 00:19:13;;;;;;;4.53;1.65;;;;;;;10.83;98.05;99268.91;5016549;28;20026;-66
2022/04/15 00:21:39;;;;;;;3.22;1.60;;;;;;;10.95;98.60;99301.69;5026255;28;20475;-67
2022/04/15 00:24:05;;;;;;;2.83;1.98;;;;;;;10.93;98.77;99304.59;5016073;28;20029;-68
2022/04/15 00:26:30;;;;;;;3.13;1.45;;;;;;;10.89;99.53;99302.47;5016147;28;20031;-66
2022/04/15 00:28:56;;;;;;;3.40;1.70;;;;;;;10.81;99.83;99297.19;5045102;22;20049;-72
2022/04/15 00:31:21;;;;;;;4.32;1.50;;;;;;;10.88;99.65;99300.81;5044988;28;20452;-71
2022/04/15 00:33:47;;;;;;;4.53;1.67;;;;;;;10.90;100.00;99299.59;5052400;28;20359;-71
2022/04/15 00:36:12;;;;;;;6.13;1.85;;;;;;;10.90;100.00;99298.75;5042686;28;20859;-71
2022/04/15 00:38:37;;;;;;;3.10;1.65;;;;;;;10.89;100.00;99297.88;5051121;28;20096;-71
2022/04/15 00:41:02;;;;;;;3.72;2.17;;;;;;;10.91;100.00;99292.28;5050568;28;20029;-71
2022/04/15 00:43:28;;;;;;;3.75;1.60;;;;;;;10.92;100.00;99300.22;5047668;28;20474;-71
2022/04/15 00:45:54;;;;;;;3.95;1.88;;;;;;;10.96;100.00;99292.56;5048321;28;20083;-71
2022/04/15 00:48:19;;;;;;;5.00;2.00;;;;;;;10.94;100.00;99300.03;5039663;28;20060;-71
2022/04/15 00:50:45;;;;;;;5.25;1.90;;;;;;;10.90;100.00;99296.03;5068566;28;20099;-71
2022/04/15 00:53:12;;;;;;;4.35;1.92;;;;;;;10.81;99.66;99284.50;5035678;28;20025;-72
2022/04/15 00:55:39;;;;;;;2.60;1.67;;;;;;;10.83;100.00;99300.56;5034770;28;20029;-71
2022/04/15 00:58:06;;;;;;;11.15;1.90;;;;;;;10.88;100.00;99300.81;5044490;28;20466;-72
2022/04/15 01:00:34;;;;;;;8.82;1.92;;;;;;;10.92;100.00;99302.09;5042944;28;20482;-72
2022/04/15 01:03:03;;;;;;;10.27;2.13;;;;;;;10.97;100.00;99316.72;5050978;28;20017;-71
2022/04/15 01:05:28;;;;;;;4.60;1.77;;;;;;;10.92;100.00;99302.91;5032871;28;20072;-71
2022/04/15 01:07:56;;;;;;;3.72;1.98;;;;;;;10.97;100.00;99302.34;5039621;28;20443;-71
2022/04/15 01:10:24;;;;;;;5.53;2.15;;;;;;;11.01;99.39;99290.09;5046420;28;20033;-72
2022/04/15 01:12:55;;;;;;;6.38;2.22;;;;;;;11.06;99.43;99303.91;5051759;28;20021;-69
2022/04/15 01:15:23;;;;;;;4.47;2.47;;;;;;;11.08;99.78;99307.25;5051061;28;20367;-69
2022/04/15 01:17:48;;;;;;;7.22;2.72;;;;;;;11.01;99.88;99300.09;5052931;28;20062;-70
2022/04/15 01:20:14;;;;;;;3.85;2.03;;;;;;;10.98;99.07;99293.22;5048819;28;20052;-70
2022/04/15 01:22:44;;;;;;;4.70;1.80;;;;;;;10.94;99.72;99283.78;5060071;28;20024;-69
2022/04/15 01:25:15;;;;;;;4.70;1.85;;;;;;;11.00;99.67;99298.41;5050700;28;20463;-69
2022/04/15 01:27:42;;;;;;;3.63;2.03;;;;;;;10.89;100.00;99288.94;5051766;28;20021;-69
2022/04/15 01:30:13;;;;;;;4.72;1.88;;;;;;;10.97;100.00;99308.59;5051138;28;20155;-70
2022/04/15 01:32:38;;;;;;;6.60;2.17;;;;;;;10.94;100.00;99302.72;5055043;28;20432;-70
2022/04/15 01:35:06;;;;;;;3.45;2.03;;;;;;;10.90;100.00;99313.13;5046711;28;20120;-70
2022/04/15 01:37:32;;;;;;;7.60;2.42;;;;;;;10.78;100.00;99303.81;5040070;28;20036;-69
2022/04/15 01:39:58;;;;;;;3.17;1.90;;;;;;;10.72;100.00;99315.44;5051848;28;20389;-72
2022/04/15 01:42:23;;;;;;;3.08;1.98;;;;;;;10.57;100.00;99312.75;5052655;28;20021;-71
2022/04/15 01:44:49;;;;;;;6.18;2.05;;;;;;;10.39;100.00;99317.75;5047789;28;20017;-69
2022/04/15 01:47:16;;;;;;;7.35;2.35;;;;;;;10.28;100.00;99311.78;5042599;28;20035;-70
2022/04/15 01:49:42;;;;;;;3.30;2.00;;;;;;;10.13;100.00;99313.63;5050480;28;20020;-70
2022/04/15 01:52:07;;;;;;;3.70;2.22;;;;;;;9.98;100.00;99307.41;5058935;28;20043;-70
2022/04/15 01:54:32;;;;;;;6.30;2.25;;;;;;;9.90;100.00;99305.63;5046912;28;20035;-70
2022/04/15 01:56:58;;;;;;;6.72;2.40;;;;;;;9.91;100.00;99310.03;5036660;28;20029;-69
2022/04/15 01:59:23;;;;;;;4.30;2.20;;;;;;;9.90;100.00;99307.50;5046971;28;20036;-69
2022/04/15 02:01:50;;;;;;;2.97;2.00;;;;;;;9.94;100.00;99309.66;5045398;28;20040;-69
2022/04/15 02:04:15;;;;;;;3.63;2.20;;;;;;;9.88;100.00;99310.41;5060029;28;20021;-70
2022/04/15 02:06:41;;;;;;;5.07;2.72;;;;;;;9.72;100.00;99299.75;5042286;28;20300;-69
2022/04/15 02:09:06;;;;;;;3.65;2.40;;;;;;;9.59;100.00;99300.44;5038833;28;20029;-70
2022/04/15 02:11:34;;;;;;;4.93;2.13;;;;;;;9.65;100.00;99316.72;5053153;28;20021;-70
2022/04/15 02:13:59;;;;;;;6.35;2.25;;;;;;;9.58;100.00;99320.34;5058870;28;20422;-70
2022/04/15 02:16:25;;;;;;;6.03;2.35;;;;;;;9.53;100.00;99301.97;5048057;28;20068;-70
2022/04/15 02:18:50;;;;;;;4.65;2.38;;;;;;;9.37;100.00;99294.88;5048967;28;20074;-70
2022/04/15 02:21:15;;;;;;;3.60;2.00;;;;;;;9.37;100.00;99311.06;5042031;28;20035;-69
2022/04/15 02:23:40;;;;;;;7.38;2.72;;;;;;;9.21;100.00;99308.53;5045016;28;20474;-70
2022/04/15 02:26:06;;;;;;;3.65;2.25;;;;;;;9.39;100.00;99322.53;5051215;28;20050;-69
2022/04/15 02:28:31;;;;;;;3.55;2.35;;;;;;;9.25;100.00;99328.75;5032162;28;20300;-69
2022/04/15 02:30:56;;;;;;;6.70;2.53;;;;;;;9.18;100.00;99319.69;5029381;28;20021;-69
2022/04/15 02:33:22;;;;;;;3.42;2.25;;;;;;;9.12;100.00;99320.44;5041848;28;20077;-69
2022/04/15 02:35:48;;;;;;;6.13;1.95;;;;;;;8.97;100.00;99320.38;5038861;28;20108;-69
2022/04/15 02:38:13;;;;;;;3.92;2.50;;;;;;;8.84;100.00;99323.66;5035218;28;20034;-69
2022/04/15 02:40:38;;;;;;;3.85;2.63;;;;;;;8.80;100.00;99311.53;5042408;28;20021;-69
2022/04/15 02:43:04;;;;;;;10.40;3.03;;;;;;;8.81;100.00;99336.69;5048475;28;20032;-69
2022/04/15 02:45:29;;;;;;;4.22;2.40;;;;;;;8.64;100.00;99317.06;5052695;28;20048;-69
2022/04/15 02:47:56;;;;;;;47.05;19.25;;;;;;;9.04;100.00;99333.97;5040882;28;20033;-69
2022/04/15 02:50:21;;;;;;;20.40;9.25;;;;;;;9.10;100.00;99338.66;5045842;28;20551;-69
2022/04/15 02:52:48;;;;;;;18.90;6.88;;;;;;;9.18;100.00;99335.91;5046143;28;20025;-69
2022/04/15 02:55:13;;;;;;;85.15;33.65;;;;;;;9.25;100.00;99328.75;5052175;28;20037;-69
2022/04/15 02:57:38;;;;;;;85.60;34.60;;;;;;;9.21;100.00;99332.84;5038947;28;20035;-69
2022/04/15 03:00:05;;;;;;;57.33;23.55;;;;;;;9.20;100.00;99336.56;5042829;28;20032;-69
2022/04/15 03:02:34;;;;;;;21.40;11.02;;;;;;;9.02;100.00;99336.03;5032747;28;20559;-69
2022/04/15 03:05:00;;;;;;;;;;;;;;;8.93;100.00;99338.81;5033015;28;20462;-69
2022/04/15 03:07:25;;;;;;;9.75;4.03;;;;;;;8.90;100.00;99341.81;5041959;28;19916;-69
2022/04/15 03:09:51;;;;;;;6.40;3.10;;;;;;;8.74;100.00;99340.09;5063627;28;20024;-69
2022/04/15 03:12:16;;;;;;;4.15;2.40;;;;;;;8.63;100.00;99320.78;5056514;28;20029;-69
2022/04/15 03:14:42;;;;;;;3.25;2.20;;;;;;;8.64;100.00;99338.63;5040589;28;20392;-69
2022/04/15 03:17:07;;;;;;;4.32;2.20;;;;;;;8.49;100.00;99331.31;5033523;28;20040;-69
2022/04/15 03:19:32;;;;;;;6.53;2.22;;;;;;;8.29;100.00;99330.88;5038230;28;20498;-69
2022/04/15 03:21:58;;;;;;;4.35;2.60;;;;;;;8.16;100.00;99325.19;5036929;28;20478;-69
2022/04/15 03:24:23;;;;;;;4.57;2.70;;;;;;;8.17;100.00;99348.44;5052762;28;20025;-69
2022/04/15 03:26:48;;;;;;;6.25;3.30;;;;;;;8.21;100.00;99343.53;5041061;28;20662;-69
2022/04/15 03:29:14;;;;;;;6.20;2.95;;;;;;;8.15;100.00;99333.44;5048692;28;20551;-69
2022/04/15 03:31:39;;;;;;;5.53;2.97;;;;;;;7.98;100.00;99320.03;5034499;28;20021;-69
2022/04/15 03:34:04;;;;;;;3.85;2.45;;;;;;;7.98;100.00;99322.72;5038078;28;20079;-69
2022/04/15 03:36:30;;;;;;;4.20;2.20;;;;;;;8.29;100.00;99348.91;5030499;28;20537;-69
2022/04/15 03:38:55;;;;;;;6.57;2.50;;;;;;;8.24;100.00;99327.03;5043352;28;20045;-70
2022/04/15 03:41:22;;;;;;;2.80;2.33;;;;;;;8.30;100.00;99345.19;5043843;28;20047;-70
2022/04/15 03:43:48;;;;;;;4.07;2.20;;;;;;;8.08;100.00;99336.84;5040460;28;20025;-70
2022/04/15 03:46:13;;;;;;;4.18;2.40;;;;;;;8.10;100.00;99352.84;5040154;28;21140;-70
2022/04/15 03:48:39;;;;;;;6.50;2.97;;;;;;;7.97;100.00;99339.09;5037626;28;20087;-70
2022/04/15 03:51:04;;;;;;;8.77;2.90;;;;;;;7.85;100.00;99319.75;5029162;28;20129;-70
2022/04/15 03:53:30;;;;;;;4.18;2.72;;;;;;;7.76;100.00;99320.81;5033820;28;20541;-70
2022/04/15 03:55:55;;;;;;;6.45;3.25;;;;;;;7.84;100.00;99332.38;5041653;28;20032;-70
2022/04/15 03:58:21;;;;;;;3.50;2.58;;;;;;;7.91;100.00;99348.69;5046800;28;20419;-69
2022/04/15 04:00:47;;;;;;;6.93;3.05;;;;;;;8.09;100.00;99349.28;5040408;28;20462;-69
2022/04/15 04:03:13;;;;;;;4.22;2.40;;;;;;;7.93;100.00;99332.34;5037601;28;20119;-69
2022/04/15 04:05:39;;;;;;;5.25;2.70;;;;;;;7.89;100.00;99330.00;5042692;28;20025;-69
2022/04/15 04:08:04;;;;;;;7.00;2.90;;;;;;;7.83;100.00;99328.03;5054652;28;20075;-69
2022/04/15 04:10:30;;;;;;;3.15;2.10;;;;;;;7.86;100.00;99357.31;5043759;28;20589;-69
2022/04/15 04:12:55;;;;;;;5.75;2.70;;;;;;;7.81;100.00;99361.53;5045480;28;20061;-69
2022/04/15 04:15:20;;;;;;;5.85;2.83;;;;;;;7.75;100.00;99354.13;5037869;28;20120;-69
2022/04/15 04:17:46;;;;;;;4.53;2.78;;;;;;;7.79;100.00;99358.16;5046686;28;20079;-69
2022/04/15 04:20:16;;;;;;;4.30;2.13;;;;;;;7.61;100.00;99336.81;5047702;28;20041;-69
2022/04/15 04:22:41;;;;;;;7.50;2.63;;;;;;;7.72;100.00;99354.47;5054169;28;20119;-70
2022/04/15 04:25:08;;;;;;;4.40;2.55;;;;;;;7.75;100.00;99359.50;5035327;28;20101;-70
2022/04/15 04:27:35;;;;;;;4.05;2.38;;;;;;;7.58;100.00;99340.69;5045642;28;20051;-70
2022/04/15 04:30:01;;;;;;;5.85;2.50;;;;;;;7.64;100.00;99358.84;5040106;28;20032;-69
2022/04/15 04:32:26;;;;;;;3.63;2.53;;;;;;;7.74;100.00;99360.53;5046495;28;20765;-70
2022/04/15 04:34:52;;;;;;;5.50;2.60;;;;;;;7.86;100.00;99370.78;5036252;28;20533;-70
2022/04/15 04:37:17;;;;;;;4.22;2.40;;;;;;;7.88;100.00;99370.59;5039987;28;20033;-70
2022/04/15 04:39:42;;;;;;;6.32;2.70;;;;;;;7.82;100.00;99380.19;5036358;28;20099;-70
2022/04/15 04:42:08;;;;;;;4.07;2.60;;;;;;;7.82;100.00;99382.88;5034215;28;20083;-70
2022/04/15 04:44:35;;;;;;;7.07;2.63;;;;;;;7.88;100.00;99382.19;5042595;28;20512;-70
2022/04/15 04:47:00;;;;;;;5.78;2.78;;;;;;;7.97;100.00;99380.34;5044182;28;20036;-70
2022/04/15 04:49:26;;;;;;;3.35;2.28;;;;;;;7.91;100.00;99362.16;5047148;28;20036;-70
2022/04/15 04:51:51;;;;;;;4.10;2.67;;;;;;;8.22;100.00;99385.66;5050942;28;20036;-70
2022/04/15 04:54:18;;;;;;;5.72;2.47;;;;;;;8.30;100.00;99385.63;5045273;28;20029;-70
2022/04/15 04:56:44;;;;;;;7.60;2.80;;;;;;;8.51;100.00;99391.31;5036098;28;20570;-69
2022/04/15 04:59:09;;;;;;;4.60;2.35;;;;;;;8.73;100.00;99396.94;5036833;28;20037;-70
2022/04/15 05:01:34;;;;;;;6.70;2.50;;;;;;;8.78;100.00;99399.94;5034753;28;20033;-70
2022/04/15 05:04:00;;;;;;;3.42;2.47;;;;;;;8.87;100.00;99398.84;5040863;28;20127;-70
2022/04/15 05:06:25;;;;;;;9.43;3.10;;;;;;;8.82;100.00;99389.63;5037615;28;20049;-70
2022/04/15 05:08:50;;;;;;;4.55;3.03;;;;;;;8.96;100.00;99395.09;5030888;28;20053;-70
2022/04/15 05:11:16;;;;;;;6.47;3.90;;;;;;;9.05;100.00;99397.75;5032507;28;20030;-70
2022/04/15 05:13:41;;;;;;;8.32;3.40;;;;;;;9.15;100.00;99403.75;5045042;28;20471;-70
2022/04/15 05:16:06;;;;;;;10.48;3.20;;;;;;;9.22;100.00;99388.50;5060375;28;20037;-69
2022/04/15 05:18:32;;;;;;;7.35;2.60;;;;;;;9.47;99.06;99404.53;5043291;28;20036;-69
2022/04/15 05:20:57;;;;;;;4.50;2.75;;;;;;;9.73;98.05;99412.22;5042619;28;20116;-69
2022/04/15 05:23:23;;;;;;;6.97;2.50;;;;;;;9.90;96.30;99404.78;5040037;28;20025;-69
2022/04/15 05:25:48;;;;;;;6.05;2.63;;;;;;;10.12;95.72;99409.31;5029640;28;20024;-69
2022/04/15 05:28:13;;;;;;;3.95;2.55;;;;;;;10.23;94.83;99410.72;5040404;28;20482;-69
2022/04/15 05:30:39;;;;;;;7.75;2.47;;;;;;;10.28;92.12;99413.72;5046881;28;20029;-69
2022/04/15 05:33:04;;;;;;;4.40;2.42;;;;;;;10.40;92.24;99398.72;5055179;28;20097;-70
2022/04/15 05:35:29;;;;;;;8.40;2.78;;;;;;;10.55;91.25;99381.63;5047432;28;20024;-73
2022/04/15 05:37:55;;;;;;;7.53;2.85;;;;;;;10.93;90.06;99412.06;5029761;28;20055;-76
2022/04/15 05:40:22;;;;;;;5.95;2.58;;;;;;;11.22;88.77;99421.13;5030394;28;20021;-74
2022/04/15 05:42:47;;;;;;;3.97;2.50;;;;;;;11.17;86.60;99400.88;5038206;28;20029;-75
2022/04/15 05:45:13;;;;;;;5.68;2.53;;;;;;;11.33;86.19;99428.75;5037613;28;20075;-74
2022/04/15 05:47:39;;;;;;;3.65;2.53;;;;;;;11.31;87.43;99418.09;5043214;28;20466;-74
2022/04/15 05:50:05;;;;;;;3.45;2.15;;;;;;;11.71;85.78;99425.75;5046888;28;20029;-74
2022/04/15 05:52:31;;;;;;;3.50;2.38;;;;;;;11.97;82.67;99411.59;5043679;28;20067;-75
2022/04/15 05:54:56;;;;;;;3.83;2.47;;;;;;;12.75;80.68;99409.53;5039966;28;20463;-75
2022/04/15 05:57:23;;;;;;;5.40;2.45;;;;;;;14.36;71.28;99412.25;5044027;28;20039;-75
2022/04/15 05:59:48;;;;;;;4.55;2.45;;;;;;;15.43;66.60;99404.47;5043259;28;20028;-77
2022/04/15 06:02:13;;;;;;;3.42;2.53;;;;;;;16.12;62.78;99419.03;5048421;28;20033;-74
2022/04/15 06:04:39;;;;;;;8.35;2.67;;;;;;;16.93;58.09;99410.84;5051586;28;20104;-75
2022/04/15 06:07:04;;;;;;;4.45;2.30;;;;;;;17.06;57.79;99419.69;5047189;28;20398;-76
2022/04/15 06:09:29;;;;;;;7.57;2.30;;;;;;;17.95;55.26;99446.41;5032470;28;20048;-75
2022/04/15 06:11:56;;;;;;;5.28;2.35;;;;;;;18.75;52.70;99426.63;5041705;28;20041;-75
2022/04/15 06:14:22;;;;;;;5.68;2.08;;;;;;;18.09;55.31;99445.09;5037157;28;20029;-75
2022/04/15 06:16:47;;;;;;;8.60;2.50;;;;;;;19.11;53.12;99438.34;5042264;28;20025;-74
2022/04/15 06:19:14;;;;;;;6.65;2.85;;;;;;;20.47;48.05;99418.19;5035295;28;20108;-76
2022/04/15 06:21:40;;;;;;;4.45;2.53;;;;;;;21.53;46.40;99429.97;5044748;28;20099;-75
2022/04/15 06:24:08;;;;;;;7.68;3.00;;;;;;;21.85;45.21;99446.53;5040925;28;20503;-76
2022/04/15 06:26:36;;;;;;;3.92;2.80;;;;;;;22.19;45.59;99451.81;5051053;28;20040;-76
2022/04/15 06:29:02;;;;;;;5.18;2.85;;;;;;;22.62;44.43;99438.88;5043619;28;20089;-75
2022/04/15 06:31:27;;;;;;;7.88;3.53;;;;;;;22.21;44.01;99450.44;5044396;28;20075;-74
2022/04/15 06:33:53;;;;;;;4.15;3.15;;;;;;;22.28;44.72;99444.72;5052746;28;20032;-75
2022/04/15 06:36:19;;;;;;;4.82;2.80;;;;;;;22.98;43.49;99437.16;5039925;28;20029;-75
2022/04/15 06:38:45;;;;;;;6.63;3.47;;;;;;;22.81;42.53;99434.56;5041459;28;20024;-75
2022/04/15 06:41:10;;;;;;;7.47;3.60;;;;;;;22.93;42.40;99435.19;5038608;28;20514;-80
2022/04/15 06:43:36;;;;;;;9.13;3.38;;;;;;;22.60;41.96;99441.88;5046951;28;20020;-76
2022/04/15 06:46:03;;;;;;;5.88;3.20;;;;;;;23.75;40.89;99429.94;5052703;28;20033;-76
2022/04/15 06:48:29;;;;;;;6.50;3.35;;;;;;;23.49;40.80;99442.00;5046102;28;20096;-82
2022/04/15 06:50:54;;;;;;;7.95;3.22;;;;;;;24.76;38.18;99432.06;5048525;28;20051;-81
2022/04/15 06:53:23;;;;;;;5.88;2.85;;;;;;;24.69;38.29;99408.28;5036664;28;20026;-79
2022/04/15 06:55:52;;;;;;;5.77;3.20;;;;;;;25.24;37.49;99440.78;5055516;28;20031;-71
2022/04/15 06:58:18;;;;;;;6.07;3.28;;;;;;;25.57;37.08;99448.34;5050946;28;20287;-79
2022/04/15 07:00:44;;;;;;;4.70;2.65;;;;;;;26.24;35.41;99445.91;5063119;28;20064;-81
2022/04/15 07:03:12;;;;;;;6.70;3.45;;;;;;;26.53;35.89;99434.00;5052750;28;20083;-81
2022/04/15 07:05:38;;;;;;;4.88;3.80;;;;;;;25.90;37.23;99443.16;5049380;28;20025;-80
2022/04/15 07:08:04;;;;;;;7.18;3.88;;;;;;;26.44;36.41;99438.53;5049116;28;20439;-81
2022/04/15 07:10:30;;;;;;;8.23;4.30;;;;;;;26.21;36.37;99423.47;5050313;28;20052;-78
2022/04/15 07:12:56;;;;;;;7.10;4.35;;;;;;;25.79;36.42;99427.69;5046234;28;20037;-79
2022/04/15 07:15:23;;;;;;;10.93;4.55;;;;;;;25.90;36.90;99417.38;5053086;28;20025;-79
2022/04/15 07:17:49;;;;;;;8.65;4.07;;;;;;;25.17;37.80;99420.88;5042052;28;20505;-74
2022/04/15 07:20:14;;;;;;;6.30;4.13;;;;;;;25.82;37.14;99438.19;5043322;28;20061;-73
2022/04/15 07:22:39;;;;;;;7.63;4.13;;;;;;;26.48;36.08;99438.75;5037313;28;20040;-72
2022/04/15 07:25:05;;;;;;;8.48;3.90;;;;;;;27.65;34.82;99420.66;5036878;28;20096;-74
2022/04/15 07:27:30;;;;;;;9.70;3.95;;;;;;;28.51;33.81;99420.38;5058012;28;20351;-79
2022/04/15 07:29:56;;;;;;;5.43;3.45;;;;;;;29.86;31.29;99429.22;5047297;28;20025;-76
2022/04/15 07:32:22;;;;;;;6.00;3.53;;;;;;;29.47;31.01;99438.22;5043447;28;20090;-77
2022/04/15 07:34:50;;;;;;;6.60;3.95;;;;;;;29.56;31.31;99429.94;5043013;28;20031;-77
2022/04/15 07:37:16;;;;;;;7.68;3.80;;;;;;;29.79;31.17;99431.66;5047792;28;20544;-77
2022/04/15 07:39:41;;;;;;;5.55;4.00;;;;;;;29.91;30.36;99431.06;5043036;28;20131;-77
2022/04/15 07:42:07;;;;;;;5.25;3.03;;;;;;;30.96;29.73;99432.53;5040502;28;20104;-72
2022/04/15 07:44:32;;;;;;;6.60;3.50;;;;;;;29.77;30.60;99441.47;5052937;28;20173;-73
2022/04/15 07:46:59;;;;;;;5.50;3.75;;;;;;;29.58;30.95;99433.22;5053858;28;20025;-79
2022/04/15 07:49:24;;;;;;;5.53;3.67;;;;;;;30.02;30.50;99437.22;5038891;28;20033;-80
2022/04/15 07:51:49;;;;;;;4.78;3.20;;;;;;;31.21;29.52;99445.75;5045828;28;20031;-76
2022/04/15 07:54:15;;;;;;;6.35;4.20;;;;;;;30.82;29.52;99443.00;5037191;28;20142;-76
2022/04/15 07:56:40;;;;;;;5.47;4.07;;;;;;;30.47;29.09;99440.84;5049874;28;20071;-80
2022/04/15 07:59:07;;;;;;;8.15;4.10;;;;;;;31.37;28.51;99448.09;5059569;28;20055;-79
2022/04/15 08:01:33;;;;;;;7.70;4.07;;;;;;;31.40;28.63;99437.09;5068106;28;20040;-83
2022/04/15 08:03:59;;;;;;;5.82;3.95;;;;;;;31.08;29.30;99437.50;5050008;28;20127;-80
2022/04/15 08:06:28;;;;;;;7.13;4.70;;;;;;;31.09;28.88;99453.94;5058431;28;20075;-80
2022/04/15 08:08:54;;;;;;;7.70;4.50;;;;;;;30.56;29.82;99450.09;5056304;28;20060;-74
2022/04/15 08:11:20;;;;;;;7.75;3.78;;;;;;;31.04;29.79;99425.31;5049010;28;20137;-74
2022/04/15 08:13:47;;;;;;;5.93;4.72;;;;;;;31.30;28.93;99420.63;5049789;28;20087;-74
2022/04/15 08:16:12;;;;;;;6.00;5.10;;;;;;;30.38;29.92;99447.53;5047899;28;20028;-74
2022/04/15 08:18:38;;;;;;;7.35;5.50;;;;;;;30.63;28.71;99440.41;5039911;28;20486;-75
2022/04/15 08:21:03;;;;;;;6.85;4.10;;;;;;;31.82;28.63;99454.25;5044790;28;20056;-75
2022/04/15 08:23:28;;;;;;;6.20;4.50;;;;;;;31.96;28.14;99456.91;5036431;28;20029;-75
2022/04/15 08:25:53;;;;;;;9.00;4.30;;;;;;;32.46;28.23;99433.97;5030942;28;20495;-76
2022/04/15 08:28:20;;;;;;;5.13;3.85;;;;;;;32.50;27.72;99429.34;5038750;28;20033;-76
2022/04/15 08:30:45;;;;;;;7.60;5.43;;;;;;;29.99;29.87;99443.44;5042487;28;20044;-75
2022/04/15 08:33:11;;;;;;;8.10;4.88;;;;;;;30.22;29.76;99458.22;5044128;28;20486;-75
2022/04/15 08:35:37;;;;;;;6.10;4.70;;;;;;;30.76;30.02;99454.31;5062123;28;20020;-74
2022/04/15 08:38:03;;;;;;;7.40;4.50;;;;;;;31.53;29.11;99459.69;5043543;28;20071;-74
2022/04/15 08:40:33;;;;;;;8.20;4.07;;;;;;;31.40;29.53;99458.66;5048270;28;20029;-72
2022/04/15 08:43:02;;;;;;;7.95;4.75;;;;;;;30.47;30.36;99456.75;5057636;28;20021;-73
2022/04/15 08:45:29;;;;;;;5.57;4.25;;;;;;;31.67;29.06;99460.34;5063375;28;19998;-73
2022/04/15 08:47:57;;;;;;;9.35;4.28;;;;;;;32.73;27.52;99448.72;5056980;28;20091;-72
2022/04/15 08:50:24;;;;;;;5.68;4.40;;;;;;;33.17;26.09;99449.38;5061101;28;20032;-74
2022/04/15 08:52:52;;;;;;;5.72;4.40;;;;;;;33.08;27.09;99452.22;5056286;28;20025;-74
2022/04/15 08:55:21;;;;;;;8.57;5.43;;;;;;;33.61;27.08;99452.72;5041102;28;20041;-73
2022/04/15 08:57:46;;;;;;;;;;;;;;;34.43;25.25;99452.19;5060384;28;20045;-78
2022/04/15 09:00:12;;;;;;;6.72;5.10;;;;;;;33.69;25.38;99451.84;5071262;28;19912;-77
2022/04/15 09:02:38;;;;;;;6.18;4.45;;;;;;;32.70;27.25;99443.78;5073109;28;20036;-79
2022/04/15 09:05:05;;;;;;;7.38;5.47;;;;;;;32.04;27.84;99449.66;5070283;28;20029;-78
2022/04/15 09:07:31;;;;;;;8.35;5.60;;;;;;;32.46;27.32;99464.78;5070286;28;20051;-78
2022/04/15 09:10:01;;;;;;;9.93;5.82;;;;;;;32.88;27.32;99461.34;5051787;28;20039;-75
2022/04/15 09:12:29;;;;;;;6.30;5.05;;;;;;;32.93;26.71;99459.19;5040975;28;20025;-77
2022/04/15 09:15:15;;;;;;;8.52;5.82;;;;;;;32.09;27.66;99458.75;5044305;28;20021;-77
2022/04/15 09:17:52;;;;;;;9.05;6.32;;;;;;;32.56;26.52;99460.78;5045259;28;20483;-74
2022/04/15 09:20:19;;;;;;;6.40;5.37;;;;;;;32.82;26.83;99469.13;5048882;28;20047;-74
2022/04/15 09:22:45;;;;;;;7.68;5.57;;;;;;;32.77;26.73;99452.47;5044204;28;20029;-79
2022/04/15 09:25:11;;;;;;;7.32;5.93;;;;;;;32.69;26.62;99453.34;5048312;28;20025;-73
2022/04/15 09:27:37;;;;;;;4.85;4.35;;;;;;;32.67;26.77;99464.06;5058001;28;20029;-77
2022/04/15 09:30:04;;;;;;;8.20;6.55;;;;;;;31.82;26.96;99467.44;5058717;28;20164;-77
2022/04/15 09:32:30;;;;;;;7.53;6.30;;;;;;;31.85;26.73;99470.38;5047839;28;20025;-77
2022/04/15 09:35:00;;;;;;;11.73;7.45;;;;;;;32.34;25.46;99459.03;5054267;28;20506;-76
2022/04/15 09:37:29;;;;;;;11.82;7.00;;;;;;;32.11;25.62;99471.56;5048438;28;20730;-76
2022/04/15 09:40:09;;;;;;;10.35;8.27;;;;;;;31.53;26.32;99462.47;5043036;28;20029;-75
2022/04/15 09:42:36;;;;;;;8.02;6.78;;;;;;;31.86;26.27;99466.44;5043910;28;20017;-75
2022/04/15 09:45:14;;;;;;;8.55;6.60;;;;;;;32.31;27.13;99463.31;5049932;28;20482;-75
2022/04/15 09:47:40;;;;;;;;;;;;;;;32.96;26.37;99464.13;5038318;28;20033;-75
2022/04/15 09:50:27;;;;;;;7.68;5.63;;;;;;;33.11;25.59;99457.13;5051472;28;19932;-76
2022/04/15 09:53:13;;;;;;;7.53;5.68;;;;;;;31.56;27.80;99459.84;5049696;28;20025;-75
2022/04/15 09:55:47;;;;;;;8.38;5.75;;;;;;;31.83;26.79;99483.91;5038338;28;20041;-76
2022/04/15 09:58:15;;;;;;;9.70;6.70;;;;;;;31.30;27.97;99462.56;5036026;28;20729;-76
2022/04/15 10:00:43;;;;;;;9.40;7.60;;;;;;;31.22;26.47;99453.00;5035654;28;20044;-76
2022/04/15 10:03:11;;;;;;;7.23;6.40;;;;;;;31.65;26.12;99443.91;5047535;28;20041;-76
2022/04/15 10:05:36;;;;;;;;;;;;;;;31.70;26.91;99462.47;5051813;28;20068;-76
2022/04/15 10:08:03;;;;;;;10.40;6.80;;;;;;;29.61;29.74;99454.94;5046408;28;20386;-77
2022/04/15 10:10:29;;;;;;;10.07;6.10;;;;;;;29.14;30.29;99448.72;5042768;28;20112;-75
2022/04/15 10:13:01;;;;;;;10.77;7.57;;;;;;;27.78;31.31;99449.69;5045922;28;20051;-77
2022/04/15 10:15:29;;;;;;;12.85;8.05;;;;;;;27.81;30.68;99453.84;5043752;28;20587;-77
2022/04/15 10:17:55;;;;;;;10.77;7.03;;;;;;;28.58;29.35;99433.88;5043251;28;20020;-77
2022/04/15 10:20:21;;;;;;;9.52;6.72;;;;;;;27.39;32.94;99456.34;5050619;28;20040;-77
2022/04/15 10:22:47;;;;;;;6.78;5.60;;;;;;;26.26;33.69;99445.63;5038072;28;20022;-76
2022/04/15 10:25:12;;;;;;;10.68;7.07;;;;;;;25.51;35.84;99460.56;5034871;28;20422;-76
2022/04/15 10:27:38;;;;;;;8.77;6.72;;;;;;;26.21;34.00;99452.03;5050038;28;20032;-77
2022/04/15 10:30:19;;;;;;;12.02;8.75;;;;;;;25.43;34.59;99452.84;5046320;28;20043;-76
2022/04/15 10:32:50;;;;;;;13.55;8.70;;;;;;;26.02;34.28;99435.28;5039911;28;20131;-76
2022/04/15 10:35:26;;;;;;;13.80;9.05;;;;;;;25.45;34.27;99444.25;5047156;28;20071;-76
2022/04/15 10:38:09;;;;;;;12.05;7.68;;;;;;;25.79;34.92;99444.31;5046828;28;20036;-76
2022/04/15 10:40:35;;;;;;;11.00;7.57;;;;;;;27.11;32.83;99455.28;5045003;28;21763;-76
2022/04/15 10:43:20;;;;;;;7.95;5.88;;;;;;;29.54;29.92;99449.75;5051353;28;20115;-76
2022/04/15 10:45:46;;;;;;;10.90;7.60;;;;;;;30.68;27.30;99455.09;5043576;28;20033;-75
2022/04/15 10:48:11;;;;;;;11.13;7.88;;;;;;;30.34;27.19;99450.13;5043618;28;20071;-77
2022/04/15 10:50:39;;;;;;;10.77;7.38;;;;;;;32.20;25.18;99447.16;5045621;28;20025;-76
2022/04/15 10:53:29;;;;;;;10.05;7.85;;;;;;;32.74;23.97;99450.34;5048424;28;20113;-77
2022/04/15 10:56:06;;;;;;;11.65;7.93;;;;;;;33.35;23.72;99439.69;5043723;28;20415;-76
2022/04/15 10:58:31;;;;;;;13.27;7.93;;;;;;;33.38;23.02;99433.41;5042609;28;20025;-77
2022/04/15 11:01:16;;;;;;;8.25;6.65;;;;;;;34.47;22.13;99441.91;5047630;28;20037;-75
2022/04/15 11:03:42;;;;;;;7.57;5.68;;;;;;;33.71;22.57;99424.25;5050048;28;20088;-76
2022/04/15 11:06:09;;;;;;;6.65;4.85;;;;;;;35.27;21.48;99443.44;5043118;28;20116;-76
2022/04/15 11:08:49;;;;;;;8.05;4.85;;;;;;;34.36;21.45;99429.47;5037414;28;20442;-75
2022/04/15 11:11:14;;;;;;;6.22;4.00;;;;;;;34.63;20.89;99428.03;5045668;28;20029;-75
2022/04/15 11:13:39;;;;;;;6.95;4.22;;;;;;;34.60;21.39;99432.34;5048704;28;20029;-75
2022/04/15 11:16:11;;;;;;;6.83;4.70;;;;;;;34.15;21.27;99424.72;5057146;28;20048;-75
2022/04/15 11:18:43;;;;;;;6.40;4.07;;;;;;;33.76;22.19;99429.66;5043636;28;20092;-75
2022/04/15 11:21:15;;;;;;;5.60;3.70;;;;;;;33.35;22.05;99436.91;5054657;28;20111;-75
2022/04/15 11:23:42;;;;;;;6.63;3.55;;;;;;;32.99;22.11;99417.78;5040566;28;20024;-76
2022/04/15 11:26:08;;;;;;;7.53;4.28;;;;;;;33.49;21.03;99413.38;5042050;28;20025;-76
2022/04/15 11:28:34;;;;;;;4.30;3.70;;;;;;;33.01;22.41;99403.41;5041762;28;20149;-75
2022/04/15 11:30:59;;;;;;;5.97;3.20;;;;;;;33.95;21.80;99417.13;5058430;28;20024;-75